Destinations Bologna Guglielmo Marconi Airport

Bologna Guglielmo Marconi Airport (LIPE / BLQ)

Flights to Bologna Guglielmo Marconi Airport

Flight number From ETE Dispatch
SPY-2454 EGPH Edinburgh Airport 02:30

Flights from Bologna Guglielmo Marconi Airport

Flight number To ETE Dispatch
SPY-2455 EGPH Edinburgh Airport 02:45
About

Bologna Guglielmo Marconi Airport facts

Bologna Guglielmo Marconi Airport is located in Bologna at an elevation of 37.5 meters or 123 feet.

Currently, Speedy Airlines serves 2 flights to and from Bologna Guglielmo Marconi Airport.

Detailed airport info

Route map

Weather

Current weather

METAR

METAR

Metar data retrieved Sunday, 21 July 2024 at 18:55 UTC

LIPE 211820Z 09007KT CAVOK 30/21 Q1007
Wind Temperature
7 kt 30c